sensor_id;sensor_type;location;lat;lon;timestamp;P1;durP1;ratioP1;P2;durP2;ratioP2
8488;SDS011;4281;45.772;12.852;2024-02-14T00:01:01;10.53;;;9.43;;
8488;SDS011;4281;45.772;12.852;2024-02-14T00:03:28;10.57;;;9.50;;
8488;SDS011;4281;45.772;12.852;2024-02-14T00:05:56;12.30;;;10.20;;
8488;SDS011;4281;45.772;12.852;2024-02-14T00:08:24;10.90;;;9.80;;
8488;SDS011;4281;45.772;12.852;2024-02-14T00:10:53;10.67;;;9.67;;
8488;SDS011;4281;45.772;12.852;2024-02-14T00:13:21;11.67;;;10.50;;
8488;SDS011;4281;45.772;12.852;2024-02-14T00:15:49;10.87;;;9.83;;
8488;SDS011;4281;45.772;12.852;2024-02-14T00:18:17;10.50;;;9.50;;
8488;SDS011;4281;45.772;12.852;2024-02-14T00:20:46;11.40;;;10.20;;
8488;SDS011;4281;45.772;12.852;2024-02-14T00:23:14;11.17;;;10.10;;
8488;SDS011;4281;45.772;12.852;2024-02-14T00:25:41;10.40;;;9.40;;
8488;SDS011;4281;45.772;12.852;2024-02-14T00:28:11;10.13;;;9.10;;
8488;SDS011;4281;45.772;12.852;2024-02-14T00:30:39;10.53;;;9.53;;
8488;SDS011;4281;45.772;12.852;2024-02-14T00:33:07;10.90;;;9.90;;
8488;SDS011;4281;45.772;12.852;2024-02-14T00:35:34;10.20;;;9.20;;
8488;SDS011;4281;45.772;12.852;2024-02-14T00:38:02;10.50;;;9.43;;
8488;SDS011;4281;45.772;12.852;2024-02-14T00:40:30;11.43;;;10.40;;
8488;SDS011;4281;45.772;12.852;2024-02-14T00:42:58;10.67;;;9.67;;
8488;SDS011;4281;45.772;12.852;2024-02-14T00:45:27;10.33;;;9.23;;
8488;SDS011;4281;45.772;12.852;2024-02-14T00:47:55;10.70;;;9.60;;
8488;SDS011;4281;45.772;12.852;2024-02-14T00:50:23;11.03;;;9.93;;
8488;SDS011;4281;45.772;12.852;2024-02-14T00:52:51;10.67;;;9.40;;
8488;SDS011;4281;45.772;12.852;2024-02-14T00:55:19;10.83;;;9.83;;
8488;SDS011;4281;45.772;12.852;2024-02-14T00:57:47;11.17;;;10.03;;
8488;SDS011;4281;45.772;12.852;2024-02-14T01:00:15;11.03;;;9.93;;
8488;SDS011;4281;45.772;12.852;2024-02-14T01:02:45;10.13;;;9.03;;
8488;SDS011;4281;45.772;12.852;2024-02-14T01:05:13;10.47;;;9.43;;
8488;SDS011;4281;45.772;12.852;2024-02-14T01:07:41;10.50;;;9.07;;
8488;SDS011;4281;45.772;12.852;2024-02-14T01:10:09;11.00;;;9.87;;
8488;SDS011;4281;45.772;12.852;2024-02-14T01:12:37;10.40;;;9.33;;
8488;SDS011;4281;45.772;12.852;2024-02-14T01:15:06;10.57;;;9.03;;
8488;SDS011;4281;45.772;12.852;2024-02-14T01:17:35;9.77;;;8.77;;
8488;SDS011;4281;45.772;12.852;2024-02-14T01:20:07;11.97;;;9.40;;
8488;SDS011;4281;45.772;12.852;2024-02-14T01:22:35;9.87;;;8.83;;
8488;SDS011;4281;45.772;12.852;2024-02-14T01:25:03;10.00;;;8.90;;
8488;SDS011;4281;45.772;12.852;2024-02-14T01:27:32;9.40;;;8.40;;
8488;SDS011;4281;45.772;12.852;2024-02-14T01:30:00;10.43;;;8.47;;
8488;SDS011;4281;45.772;12.852;2024-02-14T01:32:28;9.60;;;8.20;;
8488;SDS011;4281;45.772;12.852;2024-02-14T01:34:56;10.03;;;9.03;;
8488;SDS011;4281;45.772;12.852;2024-02-14T01:37:25;8.83;;;8.03;;
8488;SDS011;4281;45.772;12.852;2024-02-14T01:39:55;9.67;;;8.60;;
8488;SDS011;4281;45.772;12.852;2024-02-14T01:42:23;8.83;;;7.90;;
8488;SDS011;4281;45.772;12.852;2024-02-14T01:44:51;8.60;;;7.70;;
8488;SDS011;4281;45.772;12.852;2024-02-14T01:47:19;9.00;;;8.10;;
8488;SDS011;4281;45.772;12.852;2024-02-14T01:49:47;8.60;;;7.43;;
8488;SDS011;4281;45.772;12.852;2024-02-14T01:52:16;8.47;;;7.57;;
8488;SDS011;4281;45.772;12.852;2024-02-14T01:54:45;7.30;;;6.60;;
8488;SDS011;4281;45.772;12.852;2024-02-14T01:57:13;7.33;;;6.63;;
8488;SDS011;4281;45.772;12.852;2024-02-14T01:59:40;7.13;;;6.43;;
8488;SDS011;4281;45.772;12.852;2024-02-14T02:02:08;7.60;;;6.73;;
8488;SDS011;4281;45.772;12.852;2024-02-14T02:04:36;6.80;;;6.10;;
8488;SDS011;4281;45.772;12.852;2024-02-14T02:07:04;6.00;;;5.40;;
8488;SDS011;4281;45.772;12.852;2024-02-14T02:09:32;6.37;;;5.77;;
8488;SDS011;4281;45.772;12.852;2024-02-14T02:12:01;6.00;;;5.40;;
8488;SDS011;4281;45.772;12.852;2024-02-14T02:14:33;6.10;;;5.30;;
8488;SDS011;4281;45.772;12.852;2024-02-14T02:17:01;6.60;;;5.27;;
8488;SDS011;4281;45.772;12.852;2024-02-14T02:19:31;5.17;;;4.70;;
8488;SDS011;4281;45.772;12.852;2024-02-14T02:21:59;5.17;;;4.63;;
8488;SDS011;4281;45.772;12.852;2024-02-14T02:24:28;5.50;;;4.40;;
8488;SDS011;4281;45.772;12.852;2024-02-14T02:26:56;4.47;;;3.93;;
8488;SDS011;4281;45.772;12.852;2024-02-14T02:29:24;4.50;;;4.10;;
8488;SDS011;4281;45.772;12.852;2024-02-14T02:31:52;4.83;;;4.13;;
8488;SDS011;4281;45.772;12.852;2024-02-14T02:34:20;4.53;;;4.07;;
8488;SDS011;4281;45.772;12.852;2024-02-14T02:36:48;4.30;;;3.90;;
8488;SDS011;4281;45.772;12.852;2024-02-14T02:39:17;4.57;;;4.00;;
8488;SDS011;4281;45.772;12.852;2024-02-14T02:41:46;4.30;;;3.60;;
8488;SDS011;4281;45.772;12.852;2024-02-14T02:44:16;3.97;;;3.57;;
8488;SDS011;4281;45.772;12.852;2024-02-14T02:46:44;4.13;;;3.60;;
8488;SDS011;4281;45.772;12.852;2024-02-14T02:49:12;4.97;;;3.53;;
8488;SDS011;4281;45.772;12.852;2024-02-14T02:51:40;3.97;;;3.60;;
8488;SDS011;4281;45.772;12.852;2024-02-14T02:54:08;4.03;;;3.43;;
8488;SDS011;4281;45.772;12.852;2024-02-14T02:56:37;3.40;;;2.90;;
8488;SDS011;4281;45.772;12.852;2024-02-14T02:59:08;3.53;;;3.23;;
8488;SDS011;4281;45.772;12.852;2024-02-14T03:01:36;3.80;;;3.17;;
8488;SDS011;4281;45.772;12.852;2024-02-14T03:04:04;3.83;;;3.10;;
8488;SDS011;4281;45.772;12.852;2024-02-14T03:06:33;3.97;;;3.57;;
8488;SDS011;4281;45.772;12.852;2024-02-14T03:09:01;3.50;;;3.10;;
8488;SDS011;4281;45.772;12.852;2024-02-14T03:11:29;3.50;;;3.20;;
8488;SDS011;4281;45.772;12.852;2024-02-14T03:13:57;3.33;;;3.03;;
8488;SDS011;4281;45.772;12.852;2024-02-14T03:16:26;3.73;;;3.20;;
8488;SDS011;4281;45.772;12.852;2024-02-14T03:18:55;4.50;;;2.80;;
8488;SDS011;4281;45.772;12.852;2024-02-14T03:21:25;3.67;;;3.07;;
8488;SDS011;4281;45.772;12.852;2024-02-14T03:23:53;3.07;;;2.77;;
8488;SDS011;4281;45.772;12.852;2024-02-14T03:26:21;3.33;;;2.30;;
8488;SDS011;4281;45.772;12.852;2024-02-14T03:28:49;3.00;;;2.43;;
8488;SDS011;4281;45.772;12.852;2024-02-14T03:31:20;2.20;;;2.00;;
8488;SDS011;4281;45.772;12.852;2024-02-14T03:33:50;2.33;;;2.13;;
8488;SDS011;4281;45.772;12.852;2024-02-14T03:36:18;2.50;;;2.30;;
8488;SDS011;4281;45.772;12.852;2024-02-14T03:38:47;2.23;;;2.03;;
8488;SDS011;4281;45.772;12.852;2024-02-14T03:41:17;2.83;;;2.47;;
8488;SDS011;4281;45.772;12.852;2024-02-14T03:43:44;2.63;;;2.13;;
8488;SDS011;4281;45.772;12.852;2024-02-14T03:46:12;2.10;;;1.90;;
8488;SDS011;4281;45.772;12.852;2024-02-14T03:48:40;2.53;;;2.10;;
8488;SDS011;4281;45.772;12.852;2024-02-14T03:51:12;2.77;;;2.00;;
8488;SDS011;4281;45.772;12.852;2024-02-14T03:53:40;2.00;;;1.80;;
8488;SDS011;4281;45.772;12.852;2024-02-14T03:56:08;2.30;;;1.97;;
8488;SDS011;4281;45.772;12.852;2024-02-14T03:58:36;2.23;;;2.03;;
8488;SDS011;4281;45.772;12.852;2024-02-14T04:01:04;2.13;;;1.93;;
8488;SDS011;4281;45.772;12.852;2024-02-14T04:03:32;2.27;;;1.87;;
8488;SDS011;4281;45.772;12.852;2024-02-14T04:06:00;2.93;;;2.07;;
8488;SDS011;4281;45.772;12.852;2024-02-14T04:08:29;2.40;;;2.20;;
8488;SDS011;4281;45.772;12.852;2024-02-14T04:10:57;2.30;;;2.10;;
8488;SDS011;4281;45.772;12.852;2024-02-14T04:13:25;2.40;;;1.97;;
8488;SDS011;4281;45.772;12.852;2024-02-14T04:15:53;2.07;;;1.80;;
8488;SDS011;4281;45.772;12.852;2024-02-14T04:18:21;2.70;;;1.93;;
8488;SDS011;4281;45.772;12.852;2024-02-14T04:20:49;2.77;;;1.90;;
8488;SDS011;4281;45.772;12.852;2024-02-14T04:23:17;3.13;;;2.20;;
8488;SDS011;4281;45.772;12.852;2024-02-14T04:25:47;2.90;;;2.00;;
8488;SDS011;4281;45.772;12.852;2024-02-14T04:28:15;2.20;;;1.97;;
8488;SDS011;4281;45.772;12.852;2024-02-14T04:30:43;2.57;;;2.00;;
8488;SDS011;4281;45.772;12.852;2024-02-14T04:33:11;2.27;;;1.90;;
8488;SDS011;4281;45.772;12.852;2024-02-14T04:35:40;1.83;;;1.60;;
8488;SDS011;4281;45.772;12.852;2024-02-14T04:38:08;1.83;;;1.63;;
8488;SDS011;4281;45.772;12.852;2024-02-14T04:40:36;2.30;;;1.90;;
8488;SDS011;4281;45.772;12.852;2024-02-14T04:43:06;1.77;;;1.50;;
8488;SDS011;4281;45.772;12.852;2024-02-14T04:45:34;2.07;;;1.80;;
8488;SDS011;4281;45.772;12.852;2024-02-14T04:48:02;2.87;;;1.70;;
8488;SDS011;4281;45.772;12.852;2024-02-14T04:50:30;1.60;;;1.50;;
8488;SDS011;4281;45.772;12.852;2024-02-14T04:52:58;1.53;;;1.43;;
8488;SDS011;4281;45.772;12.852;2024-02-14T04:55:26;2.17;;;1.63;;
8488;SDS011;4281;45.772;12.852;2024-02-14T04:57:55;1.70;;;1.60;;
8488;SDS011;4281;45.772;12.852;2024-02-14T05:00:24;1.90;;;1.40;;
8488;SDS011;4281;45.772;12.852;2024-02-14T05:02:52;1.83;;;1.40;;
8488;SDS011;4281;45.772;12.852;2024-02-14T05:05:20;1.50;;;1.30;;
8488;SDS011;4281;45.772;12.852;2024-02-14T05:07:48;3.53;;;1.60;;
8488;SDS011;4281;45.772;12.852;2024-02-14T05:10:16;2.57;;;1.60;;
8488;SDS011;4281;45.772;12.852;2024-02-14T05:12:44;1.63;;;1.53;;
8488;SDS011;4281;45.772;12.852;2024-02-14T05:15:12;1.97;;;1.67;;
8488;SDS011;4281;45.772;12.852;2024-02-14T05:17:42;2.00;;;1.57;;
8488;SDS011;4281;45.772;12.852;2024-02-14T05:20:11;1.87;;;1.40;;
8488;SDS011;4281;45.772;12.852;2024-02-14T05:22:39;2.00;;;1.63;;
8488;SDS011;4281;45.772;12.852;2024-02-14T05:25:07;1.80;;;1.50;;
8488;SDS011;4281;45.772;12.852;2024-02-14T05:27:36;3.03;;;1.57;;
8488;SDS011;4281;45.772;12.852;2024-02-14T05:30:04;1.70;;;1.60;;
8488;SDS011;4281;45.772;12.852;2024-02-14T05:32:33;2.07;;;1.70;;
8488;SDS011;4281;45.772;12.852;2024-02-14T05:35:02;2.17;;;1.50;;
8488;SDS011;4281;45.772;12.852;2024-02-14T05:37:32;1.60;;;1.47;;
8488;SDS011;4281;45.772;12.852;2024-02-14T05:40:04;1.40;;;1.30;;
8488;SDS011;4281;45.772;12.852;2024-02-14T05:42:34;2.03;;;1.30;;
8488;SDS011;4281;45.772;12.852;2024-02-14T05:45:02;1.90;;;1.40;;
8488;SDS011;4281;45.772;12.852;2024-02-14T05:47:30;1.67;;;1.57;;
8488;SDS011;4281;45.772;12.852;2024-02-14T05:49:59;1.70;;;1.40;;
8488;SDS011;4281;45.772;12.852;2024-02-14T05:52:28;2.00;;;1.50;;
8488;SDS011;4281;45.772;12.852;2024-02-14T05:54:56;2.10;;;1.53;;
8488;SDS011;4281;45.772;12.852;2024-02-14T05:57:24;1.67;;;1.40;;
8488;SDS011;4281;45.772;12.852;2024-02-14T05:59:52;2.57;;;1.40;;
8488;SDS011;4281;45.772;12.852;2024-02-14T06:02:23;2.27;;;1.57;;
8488;SDS011;4281;45.772;12.852;2024-02-14T06:04:50;2.10;;;1.70;;
8488;SDS011;4281;45.772;12.852;2024-02-14T06:07:18;1.73;;;1.50;;
8488;SDS011;4281;45.772;12.852;2024-02-14T06:09:47;1.83;;;1.53;;
8488;SDS011;4281;45.772;12.852;2024-02-14T06:12:15;2.47;;;1.60;;
8488;SDS011;4281;45.772;12.852;2024-02-14T06:14:43;1.43;;;1.33;;
8488;SDS011;4281;45.772;12.852;2024-02-14T06:17:12;1.90;;;1.57;;
8488;SDS011;4281;45.772;12.852;2024-02-14T06:19:39;1.30;;;1.20;;
8488;SDS011;4281;45.772;12.852;2024-02-14T06:22:07;2.40;;;1.57;;
8488;SDS011;4281;45.772;12.852;2024-02-14T06:24:37;1.67;;;1.50;;
8488;SDS011;4281;45.772;12.852;2024-02-14T06:27:06;2.03;;;1.40;;
8488;SDS011;4281;45.772;12.852;2024-02-14T06:29:34;2.07;;;1.30;;
8488;SDS011;4281;45.772;12.852;2024-02-14T06:32:02;2.20;;;1.70;;
8488;SDS011;4281;45.772;12.852;2024-02-14T06:34:30;1.80;;;1.50;;
8488;SDS011;4281;45.772;12.852;2024-02-14T06:36:59;1.97;;;1.70;;
8488;SDS011;4281;45.772;12.852;2024-02-14T06:39:26;2.10;;;1.80;;
8488;SDS011;4281;45.772;12.852;2024-02-14T06:41:54;2.00;;;1.80;;
8488;SDS011;4281;45.772;12.852;2024-02-14T06:44:25;2.80;;;2.10;;
8488;SDS011;4281;45.772;12.852;2024-02-14T06:46:52;2.90;;;1.87;;
8488;SDS011;4281;45.772;12.852;2024-02-14T06:49:20;3.07;;;2.20;;
8488;SDS011;4281;45.772;12.852;2024-02-14T06:51:48;2.33;;;2.13;;
8488;SDS011;4281;45.772;12.852;2024-02-14T06:54:16;2.33;;;2.13;;
8488;SDS011;4281;45.772;12.852;2024-02-14T06:56:45;3.60;;;2.30;;
8488;SDS011;4281;45.772;12.852;2024-02-14T06:59:14;3.03;;;2.40;;
8488;SDS011;4281;45.772;12.852;2024-02-14T07:01:43;2.90;;;2.30;;
8488;SDS011;4281;45.772;12.852;2024-02-14T07:04:11;4.20;;;3.07;;
8488;SDS011;4281;45.772;12.852;2024-02-14T07:06:39;4.33;;;2.90;;
8488;SDS011;4281;45.772;12.852;2024-02-14T07:09:07;4.20;;;3.03;;
8488;SDS011;4281;45.772;12.852;2024-02-14T07:11:38;4.03;;;2.70;;
8488;SDS011;4281;45.772;12.852;2024-02-14T07:14:06;3.40;;;2.60;;
8488;SDS011;4281;45.772;12.852;2024-02-14T07:16:34;3.37;;;2.60;;
8488;SDS011;4281;45.772;12.852;2024-02-14T07:19:03;3.07;;;2.40;;
8488;SDS011;4281;45.772;12.852;2024-02-14T07:21:31;2.37;;;2.00;;
8488;SDS011;4281;45.772;12.852;2024-02-14T07:23:59;2.53;;;2.10;;
8488;SDS011;4281;45.772;12.852;2024-02-14T07:26:27;2.37;;;2.17;;
8488;SDS011;4281;45.772;12.852;2024-02-14T07:28:55;2.10;;;1.90;;
8488;SDS011;4281;45.772;12.852;2024-02-14T07:31:23;2.17;;;1.90;;
8488;SDS011;4281;45.772;12.852;2024-02-14T07:33:51;3.30;;;2.23;;
8488;SDS011;4281;45.772;12.852;2024-02-14T07:36:22;2.60;;;2.20;;
8488;SDS011;4281;45.772;12.852;2024-02-14T07:38:50;3.23;;;2.17;;
8488;SDS011;4281;45.772;12.852;2024-02-14T07:41:18;2.33;;;2.00;;
8488;SDS011;4281;45.772;12.852;2024-02-14T07:43:45;2.83;;;2.20;;
8488;SDS011;4281;45.772;12.852;2024-02-14T07:46:16;2.03;;;1.70;;
8488;SDS011;4281;45.772;12.852;2024-02-14T07:48:44;2.40;;;2.10;;
8488;SDS011;4281;45.772;12.852;2024-02-14T07:51:12;2.40;;;2.20;;
8488;SDS011;4281;45.772;12.852;2024-02-14T07:53:42;2.50;;;2.10;;
8488;SDS011;4281;45.772;12.852;2024-02-14T07:56:10;2.07;;;1.77;;
8488;SDS011;4281;45.772;12.852;2024-02-14T07:58:38;2.30;;;2.10;;
8488;SDS011;4281;45.772;12.852;2024-02-14T08:01:06;3.17;;;2.10;;
8488;SDS011;4281;45.772;12.852;2024-02-14T08:03:34;2.23;;;2.03;;
8488;SDS011;4281;45.772;12.852;2024-02-14T08:06:02;2.10;;;1.90;;
8488;SDS011;4281;45.772;12.852;2024-02-14T08:08:30;2.93;;;2.07;;
8488;SDS011;4281;45.772;12.852;2024-02-14T08:10:59;2.23;;;1.87;;
8488;SDS011;4281;45.772;12.852;2024-02-14T08:13:27;2.73;;;2.50;;
8488;SDS011;4281;45.772;12.852;2024-02-14T08:15:55;2.43;;;2.23;;
8488;SDS011;4281;45.772;12.852;2024-02-14T08:18:24;2.27;;;2.07;;
8488;SDS011;4281;45.772;12.852;2024-02-14T08:20:54;2.43;;;2.03;;
8488;SDS011;4281;45.772;12.852;2024-02-14T08:23:22;2.90;;;2.10;;
8488;SDS011;4281;45.772;12.852;2024-02-14T08:25:50;2.40;;;2.00;;
8488;SDS011;4281;45.772;12.852;2024-02-14T08:28:19;2.07;;;1.80;;
8488;SDS011;4281;45.772;12.852;2024-02-14T08:30:47;2.77;;;1.97;;
8488;SDS011;4281;45.772;12.852;2024-02-14T08:33:15;2.03;;;1.80;;
8488;SDS011;4281;45.772;12.852;2024-02-14T08:35:43;3.63;;;1.90;;
8488;SDS011;4281;45.772;12.852;2024-02-14T08:38:11;1.90;;;1.67;;
8488;SDS011;4281;45.772;12.852;2024-02-14T08:40:39;2.00;;;1.70;;
8488;SDS011;4281;45.772;12.852;2024-02-14T08:43:06;2.30;;;2.10;;
8488;SDS011;4281;45.772;12.852;2024-02-14T08:45:36;2.47;;;1.80;;
8488;SDS011;4281;45.772;12.852;2024-02-14T08:48:04;2.40;;;2.10;;
8488;SDS011;4281;45.772;12.852;2024-02-14T08:50:34;2.50;;;2.17;;
8488;SDS011;4281;45.772;12.852;2024-02-14T08:53:02;3.23;;;2.03;;
8488;SDS011;4281;45.772;12.852;2024-02-14T08:55:29;2.60;;;2.00;;
8488;SDS011;4281;45.772;12.852;2024-02-14T08:57:59;2.33;;;1.97;;
8488;SDS011;4281;45.772;12.852;2024-02-14T09:00:27;2.07;;;1.87;;
8488;SDS011;4281;45.772;12.852;2024-02-14T09:02:58;2.40;;;2.00;;
8488;SDS011;4281;45.772;12.852;2024-02-14T09:05:27;2.30;;;1.90;;
8488;SDS011;4281;45.772;12.852;2024-02-14T09:07:56;2.03;;;1.83;;
8488;SDS011;4281;45.772;12.852;2024-02-14T09:10:24;2.03;;;1.83;;
8488;SDS011;4281;45.772;12.852;2024-02-14T09:12:52;2.73;;;2.10;;
8488;SDS011;4281;45.772;12.852;2024-02-14T09:15:20;2.50;;;2.07;;
8488;SDS011;4281;45.772;12.852;2024-02-14T09:17:49;2.27;;;2.07;;
8488;SDS011;4281;45.772;12.852;2024-02-14T09:20:20;2.00;;;1.80;;
8488;SDS011;4281;45.772;12.852;2024-02-14T09:22:48;3.03;;;2.10;;
8488;SDS011;4281;45.772;12.852;2024-02-14T09:25:16;2.23;;;2.03;;
8488;SDS011;4281;45.772;12.852;2024-02-14T09:27:44;4.67;;;3.00;;
8488;SDS011;4281;45.772;12.852;2024-02-14T09:30:13;3.73;;;2.63;;
8488;SDS011;4281;45.772;12.852;2024-02-14T09:32:57;2.90;;;2.40;;
8488;SDS011;4281;45.772;12.852;2024-02-14T09:35:26;2.80;;;2.40;;
8488;SDS011;4281;45.772;12.852;2024-02-14T09:37:54;3.03;;;2.57;;
8488;SDS011;4281;45.772;12.852;2024-02-14T09:40:22;2.30;;;2.10;;
8488;SDS011;4281;45.772;12.852;2024-02-14T09:42:52;2.03;;;1.83;;
8488;SDS011;4281;45.772;12.852;2024-02-14T09:45:21;2.27;;;2.00;;
8488;SDS011;4281;45.772;12.852;2024-02-14T09:47:51;2.40;;;2.07;;
8488;SDS011;4281;45.772;12.852;2024-02-14T09:50:20;2.20;;;2.00;;
8488;SDS011;4281;45.772;12.852;2024-02-14T09:52:49;2.23;;;2.03;;
8488;SDS011;4281;45.772;12.852;2024-02-14T09:55:17;2.60;;;2.37;;
8488;SDS011;4281;45.772;12.852;2024-02-14T09:57:45;4.37;;;2.40;;
8488;SDS011;4281;45.772;12.852;2024-02-14T10:00:14;3.00;;;2.40;;
8488;SDS011;4281;45.772;12.852;2024-02-14T10:02:42;2.33;;;2.03;;
8488;SDS011;4281;45.772;12.852;2024-02-14T10:05:10;2.83;;;2.23;;
8488;SDS011;4281;45.772;12.852;2024-02-14T10:07:42;2.60;;;2.23;;
8488;SDS011;4281;45.772;12.852;2024-02-14T10:10:11;3.37;;;2.27;;
8488;SDS011;4281;45.772;12.852;2024-02-14T10:12:40;2.40;;;2.20;;
8488;SDS011;4281;45.772;12.852;2024-02-14T10:15:09;3.17;;;2.50;;
8488;SDS011;4281;45.772;12.852;2024-02-14T10:17:38;2.90;;;2.47;;
8488;SDS011;4281;45.772;12.852;2024-02-14T10:20:07;2.67;;;2.47;;
8488;SDS011;4281;45.772;12.852;2024-02-14T10:22:37;2.70;;;2.50;;
8488;SDS011;4281;45.772;12.852;2024-02-14T10:25:06;3.37;;;2.90;;
8488;SDS011;4281;45.772;12.852;2024-02-14T10:27:37;3.73;;;3.03;;
8488;SDS011;4281;45.772;12.852;2024-02-14T10:30:06;3.60;;;3.10;;
8488;SDS011;4281;45.772;12.852;2024-02-14T10:32:36;3.57;;;2.93;;
8488;SDS011;4281;45.772;12.852;2024-02-14T10:35:05;4.67;;;3.77;;
8488;SDS011;4281;45.772;12.852;2024-02-14T10:37:35;4.33;;;3.87;;
8488;SDS011;4281;45.772;12.852;2024-02-14T10:40:04;4.53;;;3.70;;
8488;SDS011;4281;45.772;12.852;2024-02-14T10:42:33;4.90;;;4.00;;
8488;SDS011;4281;45.772;12.852;2024-02-14T10:45:02;4.77;;;4.13;;
8488;SDS011;4281;45.772;12.852;2024-02-14T10:47:33;5.90;;;4.50;;
8488;SDS011;4281;45.772;12.852;2024-02-14T10:50:03;6.10;;;5.00;;
8488;SDS011;4281;45.772;12.852;2024-02-14T10:52:33;8.13;;;6.30;;
8488;SDS011;4281;45.772;12.852;2024-02-14T10:55:03;7.23;;;5.93;;
8488;SDS011;4281;45.772;12.852;2024-02-14T10:57:32;9.50;;;6.93;;
8488;SDS011;4281;45.772;12.852;2024-02-14T11:00:01;9.50;;;7.17;;
8488;SDS011;4281;45.772;12.852;2024-02-14T11:02:33;8.73;;;7.47;;
8488;SDS011;4281;45.772;12.852;2024-02-14T11:05:03;8.87;;;7.67;;
8488;SDS011;4281;45.772;12.852;2024-02-14T11:07:33;10.07;;;7.10;;
8488;SDS011;4281;45.772;12.852;2024-02-14T11:10:04;9.17;;;7.87;;
8488;SDS011;4281;45.772;12.852;2024-02-14T11:12:33;18.77;;;15.23;;
8488;SDS011;4281;45.772;12.852;2024-02-14T11:15:10;19.03;;;15.47;;
8488;SDS011;4281;45.772;12.852;2024-02-14T11:17:39;16.37;;;13.60;;
8488;SDS011;4281;45.772;12.852;2024-02-14T11:20:14;15.03;;;12.30;;
8488;SDS011;4281;45.772;12.852;2024-02-14T11:22:52;14.17;;;11.87;;
8488;SDS011;4281;45.772;12.852;2024-02-14T11:25:31;13.33;;;11.17;;
8488;SDS011;4281;45.772;12.852;2024-02-14T11:28:01;14.67;;;11.40;;
8488;SDS011;4281;45.772;12.852;2024-02-14T11:30:40;15.53;;;12.10;;
8488;SDS011;4281;45.772;12.852;2024-02-14T11:33:15;16.43;;;13.00;;
8488;SDS011;4281;45.772;12.852;2024-02-14T11:35:45;19.93;;;15.13;;
8488;SDS011;4281;45.772;12.852;2024-02-14T11:38:14;19.50;;;15.40;;
8488;SDS011;4281;45.772;12.852;2024-02-14T11:40:41;17.63;;;14.90;;
8488;SDS011;4281;45.772;12.852;2024-02-14T11:43:10;20.20;;;16.07;;
8488;SDS011;4281;45.772;12.852;2024-02-14T11:45:41;20.43;;;16.53;;
8488;SDS011;4281;45.772;12.852;2024-02-14T11:48:09;20.27;;;15.60;;
8488;SDS011;4281;45.772;12.852;2024-02-14T11:50:38;19.93;;;15.13;;
8488;SDS011;4281;45.772;12.852;2024-02-14T11:53:07;20.23;;;15.77;;
8488;SDS011;4281;45.772;12.852;2024-02-14T11:55:36;20.40;;;15.37;;
8488;SDS011;4281;45.772;12.852;2024-02-14T11:58:08;20.80;;;15.53;;
8488;SDS011;4281;45.772;12.852;2024-02-14T12:00:37;19.37;;;15.33;;
8488;SDS011;4281;45.772;12.852;2024-02-14T12:03:09;18.87;;;15.50;;
8488;SDS011;4281;45.772;12.852;2024-02-14T12:05:38;21.23;;;16.37;;
8488;SDS011;4281;45.772;12.852;2024-02-14T12:08:08;18.93;;;15.27;;
8488;SDS011;4281;45.772;12.852;2024-02-14T12:10:36;22.73;;;17.50;;
8488;SDS011;4281;45.772;12.852;2024-02-14T12:13:06;21.23;;;16.50;;
8488;SDS011;4281;45.772;12.852;2024-02-14T12:15:38;24.33;;;18.07;;
8488;SDS011;4281;45.772;12.852;2024-02-14T12:18:08;22.13;;;17.20;;
8488;SDS011;4281;45.772;12.852;2024-02-14T12:20:37;22.17;;;18.33;;
8488;SDS011;4281;45.772;12.852;2024-02-14T12:23:05;26.23;;;19.63;;
8488;SDS011;4281;45.772;12.852;2024-02-14T12:25:33;25.47;;;20.07;;
8488;SDS011;4281;45.772;12.852;2024-02-14T12:28:01;26.90;;;19.80;;
8488;SDS011;4281;45.772;12.852;2024-02-14T12:30:41;24.77;;;19.70;;
8488;SDS011;4281;45.772;12.852;2024-02-14T12:33:13;26.23;;;20.40;;
8488;SDS011;4281;45.772;12.852;2024-02-14T12:35:42;23.43;;;20.03;;
8488;SDS011;4281;45.772;12.852;2024-02-14T12:38:10;25.87;;;19.97;;
8488;SDS011;4281;45.772;12.852;2024-02-14T12:40:39;23.57;;;19.87;;
8488;SDS011;4281;45.772;12.852;2024-02-14T12:43:08;25.07;;;20.87;;
8488;SDS011;4281;45.772;12.852;2024-02-14T12:45:36;24.07;;;19.60;;
8488;SDS011;4281;45.772;12.852;2024-02-14T12:48:05;22.40;;;18.00;;
8488;SDS011;4281;45.772;12.852;2024-02-14T12:50:36;22.57;;;18.07;;
8488;SDS011;4281;45.772;12.852;2024-02-14T12:53:05;25.10;;;19.87;;
8488;SDS011;4281;45.772;12.852;2024-02-14T12:55:33;24.43;;;19.27;;
8488;SDS011;4281;45.772;12.852;2024-02-14T12:58:01;22.43;;;17.83;;
8488;SDS011;4281;45.772;12.852;2024-02-14T13:00:30;21.80;;;17.90;;
8488;SDS011;4281;45.772;12.852;2024-02-14T13:02:59;20.37;;;16.57;;
8488;SDS011;4281;45.772;12.852;2024-02-14T13:05:27;21.07;;;15.97;;
8488;SDS011;4281;45.772;12.852;2024-02-14T13:07:57;21.17;;;17.20;;
8488;SDS011;4281;45.772;12.852;2024-02-14T13:10:24;21.50;;;17.27;;
8488;SDS011;4281;45.772;12.852;2024-02-14T13:12:52;20.60;;;16.97;;
8488;SDS011;4281;45.772;12.852;2024-02-14T13:15:24;21.80;;;17.17;;
8488;SDS011;4281;45.772;12.852;2024-02-14T13:17:51;19.07;;;15.53;;
8488;SDS011;4281;45.772;12.852;2024-02-14T13:20:19;21.77;;;16.87;;
8488;SDS011;4281;45.772;12.852;2024-02-14T13:22:48;20.70;;;17.17;;
8488;SDS011;4281;45.772;12.852;2024-02-14T13:25:17;19.60;;;15.87;;
8488;SDS011;4281;45.772;12.852;2024-02-14T13:27:45;19.60;;;15.53;;
8488;SDS011;4281;45.772;12.852;2024-02-14T13:30:13;22.87;;;17.13;;
8488;SDS011;4281;45.772;12.852;2024-02-14T13:32:41;21.90;;;17.07;;
8488;SDS011;4281;45.772;12.852;2024-02-14T13:35:09;24.37;;;18.27;;
8488;SDS011;4281;45.772;12.852;2024-02-14T13:37:39;24.53;;;18.57;;
8488;SDS011;4281;45.772;12.852;2024-02-14T13:40:08;24.67;;;18.67;;
8488;SDS011;4281;45.772;12.852;2024-02-14T13:42:38;23.17;;;18.20;;
8488;SDS011;4281;45.772;12.852;2024-02-14T13:45:07;26.13;;;19.13;;
8488;SDS011;4281;45.772;12.852;2024-02-14T13:47:36;25.13;;;19.30;;
8488;SDS011;4281;45.772;12.852;2024-02-14T13:50:07;23.77;;;18.20;;
8488;SDS011;4281;45.772;12.852;2024-02-14T13:52:36;24.00;;;18.40;;
8488;SDS011;4281;45.772;12.852;2024-02-14T13:55:04;23.63;;;19.00;;
8488;SDS011;4281;45.772;12.852;2024-02-14T13:57:36;23.93;;;17.47;;
8488;SDS011;4281;45.772;12.852;2024-02-14T14:00:07;21.40;;;17.40;;
8488;SDS011;4281;45.772;12.852;2024-02-14T14:02:36;25.53;;;17.60;;
8488;SDS011;4281;45.772;12.852;2024-02-14T14:05:08;24.67;;;18.43;;
8488;SDS011;4281;45.772;12.852;2024-02-14T14:07:38;22.93;;;18.20;;
8488;SDS011;4281;45.772;12.852;2024-02-14T14:10:23;22.23;;;16.67;;
8488;SDS011;4281;45.772;12.852;2024-02-14T14:12:52;21.40;;;16.60;;
8488;SDS011;4281;45.772;12.852;2024-02-14T14:15:21;22.10;;;17.00;;
8488;SDS011;4281;45.772;12.852;2024-02-14T14:17:50;21.63;;;17.60;;
8488;SDS011;4281;45.772;12.852;2024-02-14T14:20:18;20.87;;;17.00;;
8488;SDS011;4281;45.772;12.852;2024-02-14T14:22:47;21.10;;;17.17;;
8488;SDS011;4281;45.772;12.852;2024-02-14T14:25:15;21.77;;;18.20;;
8488;SDS011;4281;45.772;12.852;2024-02-14T14:27:44;24.77;;;19.00;;
8488;SDS011;4281;45.772;12.852;2024-02-14T14:30:12;21.83;;;17.47;;
8488;SDS011;4281;45.772;12.852;2024-02-14T14:32:42;22.07;;;17.57;;
8488;SDS011;4281;45.772;12.852;2024-02-14T14:35:10;20.90;;;17.60;;
8488;SDS011;4281;45.772;12.852;2024-02-14T14:37:38;27.27;;;20.77;;
8488;SDS011;4281;45.772;12.852;2024-02-14T14:40:07;26.73;;;20.43;;
8488;SDS011;4281;45.772;12.852;2024-02-14T14:42:37;23.53;;;19.17;;
8488;SDS011;4281;45.772;12.852;2024-02-14T14:45:05;27.23;;;21.60;;
8488;SDS011;4281;45.772;12.852;2024-02-14T14:47:34;27.70;;;22.07;;
8488;SDS011;4281;45.772;12.852;2024-02-14T14:50:04;29.10;;;23.03;;
8488;SDS011;4281;45.772;12.852;2024-02-14T14:52:33;31.07;;;23.77;;
8488;SDS011;4281;45.772;12.852;2024-02-14T14:55:03;31.97;;;25.53;;
8488;SDS011;4281;45.772;12.852;2024-02-14T14:57:32;31.97;;;25.07;;
8488;SDS011;4281;45.772;12.852;2024-02-14T15:00:07;31.93;;;24.33;;
8488;SDS011;4281;45.772;12.852;2024-02-14T15:02:37;31.17;;;23.43;;